createdAt,value
2017-11-28T00:02:23.279Z,4.35
2017-11-28T00:04:49.948Z,4.57
2017-11-28T00:07:16.551Z,4.82
2017-11-28T00:09:43.243Z,4.22
2017-11-28T00:12:09.850Z,4.40
2017-11-28T00:14:36.470Z,4.53
2017-11-28T00:17:03.107Z,3.55
2017-11-28T00:19:29.728Z,5.37
2017-11-28T00:21:56.428Z,4.60
2017-11-28T00:24:23.102Z,3.30
2017-11-28T00:26:49.809Z,4.62
2017-11-28T00:29:16.410Z,4.43
2017-11-28T00:31:43.031Z,4.55
2017-11-28T00:34:09.631Z,4.90
2017-11-28T00:36:36.249Z,4.30
2017-11-28T00:39:02.863Z,4.40
2017-11-28T00:41:29.464Z,4.55
2017-11-28T00:43:56.080Z,4.37
2017-11-28T00:46:22.703Z,5.12
2017-11-28T00:48:49.308Z,4.62
2017-11-28T00:51:15.928Z,3.20
2017-11-28T00:53:42.566Z,4.50
2017-11-28T00:56:09.171Z,4.32
2017-11-28T00:58:35.803Z,5.10
2017-11-28T01:01:02.484Z,4.95
2017-11-28T01:03:29.189Z,4.60
2017-11-28T01:05:55.923Z,4.50
2017-11-28T01:08:22.605Z,4.80
2017-11-28T01:10:49.220Z,4.80
2017-11-28T01:13:15.835Z,4.20
2017-11-28T01:15:42.524Z,4.47
2017-11-28T01:18:09.138Z,4.70
2017-11-28T01:20:35.755Z,4.95
2017-11-28T01:23:02.376Z,4.28
2017-11-28T01:25:28.974Z,4.40
2017-11-28T01:27:55.674Z,4.22
2017-11-28T01:30:22.662Z,4.28
2017-11-28T01:32:49.327Z,4.47
2017-11-28T01:35:15.948Z,3.75
2017-11-28T01:37:42.543Z,4.45
2017-11-28T01:40:09.160Z,4.20
2017-11-28T01:42:35.777Z,3.67
2017-11-28T01:45:02.380Z,4.40
2017-11-28T01:47:29.016Z,4.40
2017-11-28T01:49:55.626Z,5.03
2017-11-28T01:52:22.227Z,4.30
2017-11-28T01:54:48.859Z,4.68
2017-11-28T01:57:15.591Z,4.30
2017-11-28T01:59:42.200Z,4.30
2017-11-28T02:02:08.836Z,4.30
2017-11-28T02:04:35.513Z,4.30
2017-11-28T02:07:02.188Z,4.65
2017-11-28T02:09:28.837Z,2.75
2017-11-28T02:11:55.448Z,4.60
2017-11-28T02:14:22.051Z,4.57
2017-11-28T02:16:48.668Z,4.50
2017-11-28T02:19:15.323Z,4.50
2017-11-28T02:21:41.955Z,4.70
2017-11-28T02:24:08.614Z,4.70
2017-11-28T02:26:35.334Z,5.15
2017-11-28T02:29:01.968Z,4.78
2017-11-28T02:31:28.618Z,4.50
2017-11-28T02:33:55.215Z,3.53
2017-11-28T02:36:21.892Z,4.65
2017-11-28T02:38:48.515Z,4.20
2017-11-28T02:41:15.127Z,4.90
2017-11-28T02:43:42.509Z,4.85
2017-11-28T02:46:10.922Z,4.28
2017-11-28T02:48:37.527Z,4.95
2017-11-28T02:51:04.131Z,4.20
2017-11-28T02:53:30.752Z,4.25
2017-11-28T02:55:58.169Z,4.22
2017-11-28T02:58:27.507Z,4.62
2017-11-28T03:00:55.006Z,2.60
2017-11-28T03:03:21.671Z,4.30
2017-11-28T03:05:48.296Z,4.15
2017-11-28T03:08:14.920Z,4.50
2017-11-28T03:10:47.521Z,4.20
2017-11-28T03:13:14.154Z,4.78
2017-11-28T03:15:42.672Z,4.03
2017-11-28T03:18:09.271Z,4.57
2017-11-28T03:20:36.807Z,4.40
2017-11-28T03:23:20.271Z,4.57
2017-11-28T03:25:46.902Z,2.87
2017-11-28T03:28:19.399Z,4.45
2017-11-28T03:31:01.886Z,4.30
2017-11-28T03:33:28.646Z,4.20
2017-11-28T03:35:55.421Z,4.82
2017-11-28T03:38:22.142Z,4.43
2017-11-28T03:40:48.884Z,4.62
2017-11-28T03:43:15.592Z,4.65
2017-11-28T03:45:58.976Z,4.80
2017-11-28T03:48:27.356Z,3.95
2017-11-28T03:50:53.992Z,4.40
2017-11-28T03:53:20.618Z,4.62
2017-11-28T03:55:47.346Z,4.72
2017-11-28T03:58:14.104Z,4.32
2017-11-28T04:00:40.943Z,4.30
2017-11-28T04:03:07.694Z,4.20
2017-11-28T04:05:34.514Z,4.00
2017-11-28T04:08:01.268Z,3.90
2017-11-28T04:10:28.018Z,2.97
2017-11-28T04:12:54.676Z,4.10
2017-11-28T04:15:22.050Z,3.53
2017-11-28T04:17:48.664Z,4.20
2017-11-28T04:20:15.387Z,4.55
2017-11-28T04:22:42.117Z,4.40
2017-11-28T04:25:08.772Z,4.10
2017-11-28T04:27:35.533Z,4.30
2017-11-28T04:30:02.273Z,4.43
2017-11-28T04:32:28.910Z,2.70
2017-11-28T04:34:55.656Z,4.10
2017-11-28T04:37:22.412Z,4.45
2017-11-28T04:39:49.128Z,4.53
2017-11-28T04:42:15.984Z,4.15
2017-11-28T04:44:42.606Z,4.10
2017-11-28T04:47:09.239Z,4.10
2017-11-28T04:49:35.855Z,4.30
2017-11-28T04:52:02.499Z,4.35
2017-11-28T04:54:29.136Z,4.10
2017-11-28T04:56:55.747Z,4.10
2017-11-28T04:59:22.445Z,4.30
2017-11-28T05:01:49.051Z,2.40
2017-11-28T05:04:15.692Z,4.00
2017-11-28T05:06:42.330Z,4.22
2017-11-28T05:09:08.952Z,4.00
2017-11-28T05:11:35.615Z,4.22
2017-11-28T05:14:02.373Z,4.30
2017-11-28T05:16:29.141Z,4.05
2017-11-28T05:18:55.879Z,4.62
2017-11-28T05:21:22.587Z,4.00
2017-11-28T05:23:49.205Z,2.40
2017-11-28T05:26:15.867Z,4.30
2017-11-28T05:28:42.643Z,4.32
2017-11-28T05:31:09.380Z,3.90
2017-11-28T05:33:36.120Z,4.20
2017-11-28T05:36:02.836Z,3.87
2017-11-28T05:38:29.481Z,4.20
2017-11-28T05:40:56.097Z,4.05
2017-11-28T05:43:22.953Z,4.45
2017-11-28T05:45:49.575Z,3.08
2017-11-28T05:48:16.220Z,4.40
2017-11-28T05:50:42.843Z,3.80
2017-11-28T05:53:09.496Z,4.07
2017-11-28T05:55:36.144Z,4.00
2017-11-28T05:58:02.764Z,4.10
2017-11-28T06:00:29.380Z,3.90
2017-11-28T06:02:56.052Z,3.85
2017-11-28T06:05:22.732Z,3.75
2017-11-28T06:07:49.342Z,2.87
2017-11-28T06:10:16.071Z,4.55
2017-11-28T06:12:42.688Z,4.07
2017-11-28T06:15:09.324Z,3.83
2017-11-28T06:17:35.935Z,3.95
2017-11-28T06:20:02.564Z,4.00
2017-11-28T06:22:29.264Z,2.72
2017-11-28T06:24:56.021Z,4.20
2017-11-28T06:27:22.748Z,4.80
2017-11-28T06:29:49.404Z,2.78
2017-11-28T06:32:16.136Z,4.87
2017-11-28T06:34:42.796Z,4.45
2017-11-28T06:37:09.554Z,4.90
2017-11-28T06:39:36.155Z,3.70
2017-11-28T06:42:02.776Z,4.30
2017-11-28T06:44:29.387Z,2.80
2017-11-28T06:46:56.024Z,4.22
2017-11-28T06:49:22.622Z,3.60
2017-11-28T06:51:49.248Z,2.85
2017-11-28T06:54:16.092Z,4.72
2017-11-28T06:56:49.632Z,4.25
2017-11-28T06:59:16.252Z,4.12
2017-11-28T07:01:42.860Z,4.00
2017-11-28T07:04:09.511Z,4.07
2017-11-28T07:06:36.136Z,4.62
2017-11-28T07:09:02.740Z,3.67
2017-11-28T07:11:29.367Z,4.85
2017-11-28T07:13:56.064Z,4.43
2017-11-28T07:16:22.703Z,3.50
2017-11-28T07:18:49.340Z,4.22
2017-11-28T07:21:15.944Z,4.30
2017-11-28T07:23:42.556Z,4.32
2017-11-28T07:26:09.175Z,4.10
2017-11-28T07:28:35.790Z,4.05
2017-11-28T07:31:02.432Z,3.97
2017-11-28T07:33:29.080Z,4.62
2017-11-28T07:35:55.685Z,4.60
2017-11-28T07:38:22.367Z,4.00
2017-11-28T07:40:48.986Z,3.67
2017-11-28T07:43:15.675Z,4.20
2017-11-28T07:45:42.379Z,3.95
2017-11-28T07:48:09.152Z,4.20
2017-11-28T07:50:35.760Z,4.12
2017-11-28T07:53:02.508Z,4.30
2017-11-28T07:55:29.116Z,3.60
2017-11-28T07:57:55.718Z,3.97
2017-11-28T08:00:22.452Z,4.47
2017-11-28T08:02:49.054Z,4.75
2017-11-28T08:05:15.661Z,3.67
2017-11-28T08:07:42.322Z,4.10
2017-11-28T08:10:08.963Z,3.83
2017-11-28T08:12:35.601Z,4.32
2017-11-28T08:15:02.284Z,4.62
2017-11-28T08:17:28.900Z,3.90
2017-11-28T08:19:55.636Z,3.90
2017-11-28T08:22:22.243Z,4.15
2017-11-28T08:24:48.850Z,4.22
2017-11-28T08:27:15.474Z,4.05
2017-11-28T08:29:42.084Z,3.80
2017-11-28T08:32:08.723Z,4.20
2017-11-28T08:34:35.360Z,4.00
2017-11-28T08:37:02.043Z,4.00
2017-11-28T08:39:28.681Z,3.80
2017-11-28T08:41:55.336Z,3.90
2017-11-28T08:44:21.947Z,3.50
2017-11-28T08:46:48.548Z,3.75
2017-11-28T08:49:15.181Z,3.80
2017-11-28T08:51:41.788Z,4.10
2017-11-28T08:54:08.427Z,4.35
2017-11-28T08:56:35.120Z,3.78
2017-11-28T08:59:01.855Z,4.10
2017-11-28T09:01:28.520Z,3.75
2017-11-28T09:03:55.233Z,4.00
2017-11-28T09:06:21.835Z,4.20
2017-11-28T09:08:48.478Z,3.45
2017-11-28T09:11:15.091Z,3.70
2017-11-28T09:13:41.725Z,3.70
2017-11-28T09:16:08.341Z,3.80
2017-11-28T09:18:35.168Z,3.90
2017-11-28T09:21:01.787Z,3.85
2017-11-28T09:23:28.459Z,3.70
2017-11-28T09:25:55.059Z,3.50
2017-11-28T09:28:21.764Z,3.62
2017-11-28T09:30:49.066Z,3.55
2017-11-28T09:33:16.037Z,3.75
2017-11-28T09:35:42.674Z,3.53
2017-11-28T09:38:09.289Z,3.65
2017-11-28T09:40:35.911Z,4.10
2017-11-28T09:43:02.613Z,3.80
2017-11-28T09:45:29.228Z,4.15
2017-11-28T09:47:55.865Z,3.90
2017-11-28T09:50:22.502Z,3.80
2017-11-28T09:52:49.262Z,3.80
2017-11-28T09:55:15.987Z,4.03
2017-11-28T09:57:42.616Z,3.85
2017-11-28T10:00:09.241Z,2.33
2017-11-28T10:02:35.865Z,4.05
2017-11-28T10:05:02.495Z,3.67
2017-11-28T10:07:29.113Z,3.80
2017-11-28T10:09:55.720Z,3.90
2017-11-28T10:12:22.341Z,3.90
2017-11-28T10:14:48.948Z,3.80
2017-11-28T10:17:15.572Z,3.72
2017-11-28T10:19:42.187Z,3.67
2017-11-28T10:22:08.792Z,3.80
2017-11-28T10:24:35.416Z,3.95
2017-11-28T10:27:02.104Z,3.53
2017-11-28T10:29:28.716Z,3.50
2017-11-28T10:31:55.364Z,4.18
2017-11-28T10:34:21.959Z,3.78
2017-11-28T10:36:48.559Z,3.80
2017-11-28T10:39:15.187Z,4.10
2017-11-28T10:41:41.811Z,3.70
2017-11-28T10:44:08.437Z,3.80
2017-11-28T10:46:35.051Z,3.97
2017-11-28T10:49:01.678Z,3.80
2017-11-28T10:51:28.304Z,3.58
2017-11-28T10:53:54.919Z,4.37
2017-11-28T10:56:21.559Z,4.05
2017-11-28T10:58:48.176Z,4.45
2017-11-28T11:01:14.788Z,3.85
2017-11-28T11:03:41.402Z,4.00
2017-11-28T11:06:08.856Z,3.80
2017-11-28T11:08:35.467Z,3.70
2017-11-28T11:11:02.096Z,4.20
2017-11-28T11:13:28.699Z,3.90
2017-11-28T11:15:55.294Z,4.00
2017-11-28T11:18:22.015Z,4.05
2017-11-28T11:20:49.091Z,3.78
2017-11-28T11:23:15.704Z,3.75
2017-11-28T11:25:42.320Z,3.70
2017-11-28T11:28:08.943Z,4.07
2017-11-28T11:30:35.570Z,4.07
2017-11-28T11:33:02.167Z,3.90
2017-11-28T11:35:28.818Z,3.87
2017-11-28T11:37:55.442Z,3.80
2017-11-28T11:40:22.063Z,3.70
2017-11-28T11:42:48.727Z,3.60
2017-11-28T11:45:15.339Z,3.60
2017-11-28T11:47:41.956Z,3.75
2017-11-28T11:50:08.588Z,4.03
2017-11-28T11:52:35.227Z,3.40
2017-11-28T11:55:01.847Z,4.12
2017-11-28T11:57:28.446Z,3.92
2017-11-28T11:59:55.088Z,4.00
2017-11-28T12:02:21.700Z,3.75
2017-11-28T12:04:48.407Z,3.72
2017-11-28T12:07:15.035Z,3.58
2017-11-28T12:09:41.640Z,3.70
2017-11-28T12:12:08.272Z,3.80
2017-11-28T12:14:34.889Z,3.78
2017-11-28T12:17:01.502Z,3.83
2017-11-28T12:19:28.124Z,4.70
2017-11-28T12:21:54.764Z,3.75
2017-11-28T12:24:21.364Z,3.42
2017-11-28T12:26:48.057Z,3.45
2017-11-28T12:29:14.678Z,3.60
2017-11-28T12:31:41.279Z,4.15
2017-11-28T12:34:07.908Z,3.70
2017-11-28T12:36:34.570Z,3.72
2017-11-28T12:39:01.167Z,3.87
2017-11-28T12:41:27.793Z,3.60
2017-11-28T12:43:54.401Z,3.85
2017-11-28T12:46:21.091Z,4.12
2017-11-28T12:48:47.931Z,4.65
2017-11-28T12:51:14.980Z,3.78
2017-11-28T12:53:41.606Z,3.75
2017-11-28T12:56:08.251Z,4.00
2017-11-28T12:58:35.388Z,3.92
2017-11-28T13:01:02.437Z,3.95
2017-11-28T13:03:29.104Z,4.40
2017-11-28T13:05:55.716Z,4.05
2017-11-28T13:08:22.580Z,4.15
2017-11-28T13:10:50.076Z,3.80
2017-11-28T13:13:18.553Z,4.07
2017-11-28T13:15:46.275Z,4.00
2017-11-28T13:18:13.067Z,3.90
2017-11-28T13:20:39.740Z,4.00
2017-11-28T13:23:06.489Z,4.35
2017-11-28T13:25:33.357Z,3.97
2017-11-28T13:27:59.977Z,3.90
2017-11-28T13:30:26.919Z,3.62
2017-11-28T13:32:53.610Z,4.18
2017-11-28T13:35:20.215Z,4.18
2017-11-28T13:37:46.858Z,3.58
2017-11-28T13:40:13.824Z,4.43
2017-11-28T13:42:40.832Z,4.20
2017-11-28T13:45:09.802Z,4.03
2017-11-28T13:47:37.530Z,3.67
2017-11-28T13:50:04.539Z,3.80
2017-11-28T13:52:32.671Z,3.60
2017-11-28T13:55:00.683Z,3.83
2017-11-28T13:57:27.359Z,3.55
2017-11-28T13:59:54.317Z,3.85
2017-11-28T14:02:20.936Z,3.70
2017-11-28T14:04:47.551Z,3.95
2017-11-28T14:07:14.259Z,3.70
2017-11-28T14:09:40.872Z,5.00
2017-11-28T14:12:07.483Z,4.30
2017-11-28T14:14:34.103Z,3.97
2017-11-28T14:17:00.739Z,3.60
2017-11-28T14:19:29.879Z,3.65
2017-11-28T14:22:02.218Z,3.67
2017-11-28T14:24:28.829Z,3.75
2017-11-28T14:27:01.090Z,3.70
2017-11-28T14:29:27.736Z,3.70
2017-11-28T14:32:00.232Z,3.53
2017-11-28T14:34:27.776Z,3.97
2017-11-28T14:36:54.392Z,3.87
2017-11-28T14:39:21.654Z,3.60
2017-11-28T14:41:51.966Z,4.10
2017-11-28T14:44:20.505Z,4.40
2017-11-28T14:46:47.120Z,3.85
2017-11-28T14:49:13.751Z,3.87
2017-11-28T14:51:46.196Z,3.90
2017-11-28T14:54:27.703Z,3.80
2017-11-28T14:57:00.100Z,4.50
2017-11-28T14:59:46.412Z,5.18
2017-11-28T15:02:18.652Z,4.10
2017-11-28T15:04:50.907Z,4.53
2017-11-28T15:07:32.395Z,4.37
2017-11-28T15:10:05.455Z,4.40
2017-11-28T15:12:37.652Z,4.30
2017-11-28T15:15:09.963Z,3.83
2017-11-28T15:17:40.265Z,4.15
2017-11-28T15:20:12.660Z,4.28
2017-11-28T15:22:54.145Z,3.97
2017-11-28T15:25:35.662Z,4.22
2017-11-28T15:28:02.367Z,3.80
2017-11-28T15:30:31.677Z,4.65
2017-11-28T15:32:58.296Z,4.12
2017-11-28T15:35:24.967Z,4.10
2017-11-28T15:37:51.606Z,4.10
2017-11-28T15:40:18.344Z,4.35
2017-11-28T15:42:44.956Z,4.35
2017-11-28T15:45:11.560Z,4.70
2017-11-28T15:47:38.184Z,4.78
2017-11-28T15:50:04.864Z,5.18
2017-11-28T15:52:31.492Z,4.72
2017-11-28T15:54:58.127Z,5.37
2017-11-28T15:57:24.735Z,4.75
2017-11-28T15:59:51.363Z,4.18
2017-11-28T16:02:17.985Z,3.72
2017-11-28T16:04:44.601Z,4.40
2017-11-28T16:07:11.380Z,4.22
2017-11-28T16:09:37.995Z,5.90
2017-11-28T16:12:04.619Z,4.95
2017-11-28T16:14:31.235Z,5.28
2017-11-28T16:16:57.852Z,5.97
2017-11-28T16:19:24.471Z,5.62
2017-11-28T16:21:51.096Z,4.82
2017-11-28T16:24:17.702Z,4.37
2017-11-28T16:26:44.357Z,4.40
2017-11-28T16:29:11.026Z,4.32
2017-11-28T16:31:37.732Z,4.97
2017-11-28T16:34:04.352Z,5.12
2017-11-28T16:36:30.961Z,5.10
2017-11-28T16:38:57.599Z,4.78
2017-11-28T16:41:24.223Z,4.65
2017-11-28T16:43:50.844Z,4.00
2017-11-28T16:46:17.452Z,4.10
2017-11-28T16:48:44.112Z,4.32
2017-11-28T16:51:10.720Z,4.82
2017-11-28T16:53:37.324Z,5.37
2017-11-28T16:56:04.012Z,5.00
2017-11-28T16:58:30.646Z,4.82
2017-11-28T17:00:57.252Z,4.45
2017-11-28T17:03:23.870Z,4.12
2017-11-28T17:05:50.484Z,6.00
2017-11-28T17:08:17.112Z,5.55
2017-11-28T17:10:43.720Z,4.90
2017-11-28T17:13:10.328Z,5.40
2017-11-28T17:15:36.947Z,4.90
2017-11-28T17:18:03.547Z,6.65
2017-11-28T17:20:30.152Z,5.05
2017-11-28T17:22:56.779Z,4.72
2017-11-28T17:25:23.384Z,4.65
2017-11-28T17:27:50.012Z,4.55
2017-11-28T17:30:16.665Z,4.07
2017-11-28T17:32:43.451Z,4.05
2017-11-28T17:35:10.344Z,5.43
2017-11-28T17:37:37.144Z,4.47
2017-11-28T17:40:03.857Z,4.62
2017-11-28T17:42:30.534Z,4.82
2017-11-28T17:44:57.613Z,4.35
2017-11-28T17:47:24.279Z,4.37
2017-11-28T17:49:51.772Z,5.62
2017-11-28T17:52:18.499Z,4.80
2017-11-28T17:54:45.239Z,5.35
2017-11-28T17:57:11.911Z,5.60
2017-11-28T17:59:38.574Z,5.43
2017-11-28T18:02:05.267Z,4.80
2017-11-28T18:04:32.112Z,5.97
2017-11-28T18:06:59.055Z,6.32
2017-11-28T18:09:25.760Z,4.70
2017-11-28T18:11:52.509Z,4.40
2017-11-28T18:14:19.217Z,4.45
2017-11-28T18:16:46.160Z,4.93
2017-11-28T18:19:12.824Z,5.20
2017-11-28T18:21:39.569Z,5.35
2017-11-28T18:24:06.541Z,4.78
2017-11-28T18:26:33.335Z,4.65
2017-11-28T18:29:00.136Z,9.07
2017-11-28T18:31:27.338Z,6.60
2017-11-28T18:33:54.154Z,6.20
2017-11-28T18:36:20.962Z,5.97
2017-11-28T18:38:47.730Z,5.70
2017-11-28T18:41:14.430Z,10.05
2017-11-28T18:43:41.112Z,5.20
2017-11-28T18:46:07.960Z,4.25
2017-11-28T18:48:34.654Z,4.80
2017-11-28T18:51:01.617Z,4.70
2017-11-28T18:53:28.394Z,5.60
2017-11-28T18:55:55.096Z,5.70
2017-11-28T18:58:21.808Z,4.95
2017-11-28T19:00:48.520Z,4.75
2017-11-28T19:03:15.467Z,5.72
2017-11-28T19:05:42.154Z,5.60
2017-11-28T19:08:08.857Z,4.78
2017-11-28T19:10:35.525Z,5.05
2017-11-28T19:13:02.231Z,5.32
2017-11-28T19:15:29.066Z,5.70
2017-11-28T19:17:55.748Z,5.22
2017-11-28T19:20:22.361Z,5.95
2017-11-28T19:22:49.020Z,7.35
2017-11-28T19:25:15.956Z,5.15
2017-11-28T19:27:42.725Z,6.37
2017-11-28T19:30:09.418Z,6.90
2017-11-28T19:32:36.079Z,5.53
2017-11-28T19:35:02.779Z,7.60
2017-11-28T19:37:29.930Z,5.80
2017-11-28T19:39:56.770Z,5.30
2017-11-28T19:42:23.471Z,4.80
2017-11-28T19:44:50.366Z,5.30
2017-11-28T19:47:17.123Z,5.15
2017-11-28T19:49:43.830Z,5.07
2017-11-28T19:52:10.597Z,4.82
2017-11-28T19:54:37.376Z,5.40
2017-11-28T19:57:04.015Z,6.47
2017-11-28T19:59:30.677Z,5.40
2017-11-28T20:01:57.342Z,5.60
2017-11-28T20:04:24.005Z,6.45
2017-11-28T20:06:50.717Z,6.25
2017-11-28T20:09:17.466Z,8.10
2017-11-28T20:11:44.197Z,6.43
2017-11-28T20:14:10.855Z,5.40
2017-11-28T20:16:37.551Z,4.43
2017-11-28T20:19:04.338Z,5.30
2017-11-28T20:21:30.964Z,6.05
2017-11-28T20:23:57.566Z,7.40
2017-11-28T20:26:24.176Z,8.57
2017-11-28T20:28:50.797Z,7.53
2017-11-28T20:31:17.471Z,8.00
2017-11-28T20:33:44.079Z,8.20
2017-11-28T20:36:10.696Z,9.27
2017-11-28T20:38:37.312Z,7.87
2017-11-28T20:41:03.926Z,7.35
2017-11-28T20:43:30.563Z,10.73
2017-11-28T20:45:57.199Z,6.62
2017-11-28T20:48:23.844Z,6.78
2017-11-28T20:50:50.474Z,6.07
2017-11-28T20:53:17.135Z,5.32
2017-11-28T20:55:43.769Z,5.15
2017-11-28T20:58:10.380Z,5.93
2017-11-28T21:00:37.051Z,6.93
2017-11-28T21:03:03.786Z,6.05
2017-11-28T21:05:30.410Z,6.65
2017-11-28T21:07:57.063Z,6.68
2017-11-28T21:10:23.690Z,7.80
2017-11-28T21:12:50.300Z,6.80
2017-11-28T21:15:16.916Z,5.97
2017-11-28T21:17:43.530Z,6.00
2017-11-28T21:20:10.132Z,5.20
2017-11-28T21:22:36.761Z,6.07
2017-11-28T21:25:03.365Z,5.68
2017-11-28T21:27:30.071Z,8.60
2017-11-28T21:29:56.698Z,6.85
2017-11-28T21:32:23.307Z,5.75
2017-11-28T21:34:49.917Z,5.85
2017-11-28T21:37:16.540Z,7.65
2017-11-28T21:39:43.164Z,7.40
2017-11-28T21:42:09.791Z,6.72
2017-11-28T21:44:36.406Z,7.20
2017-11-28T21:47:03.016Z,7.57
2017-11-28T21:49:29.626Z,6.68
2017-11-28T21:51:56.248Z,5.85
2017-11-28T21:54:22.852Z,7.20
2017-11-28T21:56:49.494Z,6.35
2017-11-28T21:59:16.106Z,8.13
2017-11-28T22:01:42.769Z,6.20
2017-11-28T22:04:09.409Z,6.15
2017-11-28T22:06:36.016Z,5.97
2017-11-28T22:09:02.637Z,5.87
2017-11-28T22:11:29.255Z,7.87
2017-11-28T22:13:55.876Z,6.72
2017-11-28T22:16:22.512Z,7.22
2017-11-28T22:18:49.172Z,5.18
2017-11-28T22:21:15.811Z,6.53
2017-11-28T22:23:42.427Z,6.25
2017-11-28T22:26:09.060Z,6.30
2017-11-28T22:28:35.682Z,7.30
2017-11-28T22:31:02.291Z,6.97
2017-11-28T22:33:28.892Z,8.07
2017-11-28T22:35:55.512Z,7.57
2017-11-28T22:38:22.191Z,5.75
2017-11-28T22:40:48.834Z,5.43
2017-11-28T22:43:15.450Z,7.05
2017-11-28T22:45:42.059Z,7.50
2017-11-28T22:48:08.671Z,6.95
2017-11-28T22:50:35.295Z,6.72
2017-11-28T22:53:01.939Z,6.30
2017-11-28T22:55:28.548Z,9.15
2017-11-28T22:57:55.163Z,7.32
2017-11-28T23:00:21.847Z,8.30
2017-11-28T23:02:48.482Z,7.75
2017-11-28T23:05:15.104Z,9.13
2017-11-28T23:07:41.726Z,7.18
2017-11-28T23:10:08.339Z,6.40
2017-11-28T23:12:34.947Z,7.87
2017-11-28T23:15:01.612Z,7.07
2017-11-28T23:17:28.316Z,7.93
2017-11-28T23:19:54.930Z,6.95
2017-11-28T23:22:21.554Z,8.50
2017-11-28T23:24:48.167Z,6.63
2017-11-28T23:27:14.888Z,7.50
2017-11-28T23:29:41.609Z,6.62
2017-11-28T23:32:08.243Z,9.85
2017-11-28T23:34:34.844Z,6.03
2017-11-28T23:37:01.462Z,6.80
2017-11-28T23:39:28.075Z,6.60
2017-11-28T23:41:54.743Z,6.68
2017-11-28T23:44:21.366Z,6.97
2017-11-28T23:46:47.988Z,6.25
2017-11-28T23:49:14.599Z,6.80
2017-11-28T23:51:41.224Z,7.72
2017-11-28T23:54:07.819Z,6.40
2017-11-28T23:56:34.534Z,8.20
2017-11-28T23:59:01.157Z,7.47
